createdAt,value
2018-05-04T00:02:08.794Z,2.23
2018-05-04T00:05:12.033Z,2.90
2018-05-04T00:08:15.506Z,3.57
2018-05-04T00:11:18.908Z,2.80
2018-05-04T00:14:22.682Z,3.27
2018-05-04T00:17:28.686Z,2.40
2018-05-04T00:20:32.810Z,2.57
2018-05-04T00:23:36.550Z,2.40
2018-05-04T00:26:41.374Z,2.37
2018-05-04T00:29:44.744Z,2.62
2018-05-04T00:32:48.478Z,2.40
2018-05-04T00:35:52.034Z,2.50
2018-05-04T00:38:55.328Z,2.37
2018-05-04T00:41:58.674Z,3.53
2018-05-04T00:45:03.309Z,2.95
2018-05-04T00:48:06.695Z,2.30
2018-05-04T00:51:10.482Z,3.58
2018-05-04T00:54:23.839Z,3.33
2018-05-04T00:57:28.491Z,2.17
2018-05-04T01:00:34.538Z,2.35
2018-05-04T01:03:37.920Z,2.42
2018-05-04T01:06:41.332Z,2.67
2018-05-04T01:09:44.668Z,3.30
2018-05-04T01:12:49.691Z,3.25
2018-05-04T01:15:56.272Z,3.12
2018-05-04T01:18:59.713Z,3.10
2018-05-04T01:22:03.109Z,3.22
2018-05-04T01:25:10.729Z,2.67
2018-05-04T01:28:14.221Z,2.75
2018-05-04T01:31:20.310Z,2.42
2018-05-04T01:34:25.619Z,2.35
2018-05-04T01:37:33.522Z,2.20
2018-05-04T01:40:38.263Z,2.87
2018-05-04T01:43:42.130Z,2.75
2018-05-04T01:46:46.300Z,2.45
2018-05-04T01:49:52.924Z,2.53
2018-05-04T01:52:56.297Z,2.42
2018-05-04T01:55:59.680Z,2.60
2018-05-04T01:59:05.046Z,2.22
2018-05-04T02:02:10.824Z,2.00
2018-05-04T02:05:15.302Z,2.62
2018-05-04T02:08:19.574Z,2.28
2018-05-04T02:11:22.924Z,2.22
2018-05-04T02:14:29.191Z,2.40
2018-05-04T02:17:33.798Z,2.72
2018-05-04T02:20:38.690Z,2.00
2018-05-04T02:23:54.540Z,2.12
2018-05-04T02:27:03.110Z,2.33
2018-05-04T02:30:09.580Z,2.15
2018-05-04T02:33:13.741Z,2.47
2018-05-04T02:36:22.582Z,2.40
2018-05-04T02:39:30.046Z,2.30
2018-05-04T02:42:35.655Z,2.42
2018-05-04T02:45:40.726Z,2.83
2018-05-04T02:48:44.153Z,2.30
2018-05-04T02:51:55.446Z,3.00
2018-05-04T02:55:00.647Z,3.00
2018-05-04T02:58:10.169Z,2.53
2018-05-04T03:01:19.134Z,2.35
2018-05-04T03:04:37.559Z,2.37
2018-05-04T03:07:43.688Z,2.30
2018-05-04T03:10:52.676Z,2.00
2018-05-04T03:13:56.183Z,2.33
2018-05-04T03:17:00.286Z,2.47
2018-05-04T03:20:04.688Z,2.47
2018-05-04T03:23:09.140Z,2.37
2018-05-04T03:26:14.285Z,2.15
2018-05-04T03:29:18.219Z,2.70
2018-05-04T03:32:23.146Z,2.60
2018-05-04T03:35:27.373Z,2.28
2018-05-04T03:38:32.048Z,2.28
2018-05-04T03:41:40.320Z,2.53
2018-05-04T03:44:43.714Z,2.85
2018-05-04T03:47:46.975Z,2.95
2018-05-04T03:50:50.479Z,2.53
2018-05-04T03:53:54.552Z,2.72
2018-05-04T03:57:09.692Z,2.42
2018-05-04T04:00:25.539Z,2.10
2018-05-04T04:03:41.736Z,2.33
2018-05-04T04:06:45.935Z,3.20
2018-05-04T04:09:49.347Z,1.98
2018-05-04T04:12:53.775Z,2.45
2018-05-04T04:15:57.445Z,1.85
2018-05-04T04:19:00.896Z,2.40
2018-05-04T04:22:04.335Z,2.85
2018-05-04T04:25:08.154Z,2.10
2018-05-04T04:28:13.883Z,2.33
2018-05-04T04:31:25.024Z,2.20
2018-05-04T04:34:40.958Z,2.00
2018-05-04T04:37:45.174Z,1.92
2018-05-04T04:40:48.600Z,1.98
2018-05-04T04:43:52.228Z,2.40
2018-05-04T04:46:55.808Z,2.20
2018-05-04T04:50:03.796Z,2.28
2018-05-04T04:53:08.415Z,1.85
2018-05-04T04:56:11.667Z,2.50
2018-05-04T04:59:17.606Z,2.30
2018-05-04T05:02:26.428Z,3.15
2018-05-04T05:05:33.078Z,2.50
2018-05-04T05:08:37.224Z,2.08
2018-05-04T05:11:42.567Z,2.30
2018-05-04T05:14:45.925Z,2.70
2018-05-04T05:17:50.164Z,2.27
2018-05-04T05:20:54.626Z,2.90
2018-05-04T05:23:57.877Z,2.00
2018-05-04T05:27:01.987Z,2.10
2018-05-04T05:30:05.286Z,2.43
2018-05-04T05:33:10.028Z,2.40
2018-05-04T05:36:13.397Z,2.03
2018-05-04T05:39:17.541Z,2.60
2018-05-04T05:42:22.100Z,2.03
2018-05-04T05:45:25.727Z,2.13
2018-05-04T05:48:29.903Z,2.07
2018-05-04T05:51:34.288Z,2.20
2018-05-04T05:54:38.708Z,2.10
2018-05-04T05:57:43.179Z,2.30
2018-05-04T06:00:46.522Z,2.17
2018-05-04T06:03:49.863Z,2.30
2018-05-04T06:06:54.530Z,2.50
2018-05-04T06:09:59.974Z,2.97
2018-05-04T06:13:04.940Z,2.30
2018-05-04T06:16:08.453Z,1.87
2018-05-04T06:19:11.795Z,1.90
2018-05-04T06:22:16.065Z,2.33
2018-05-04T06:25:20.259Z,2.00
2018-05-04T06:28:27.924Z,1.83
2018-05-04T06:31:31.202Z,2.30
2018-05-04T06:34:35.657Z,2.20
2018-05-04T06:37:39.019Z,2.00
2018-05-04T06:40:42.896Z,1.90
2018-05-04T06:43:47.013Z,2.37
2018-05-04T06:46:50.357Z,2.27
2018-05-04T06:49:53.939Z,2.03
2018-05-04T06:52:57.434Z,2.00
2018-05-04T06:56:01.472Z,2.07
2018-05-04T06:59:04.839Z,2.10
2018-05-04T07:02:08.930Z,2.93
2018-05-04T07:05:12.394Z,2.03
2018-05-04T07:08:15.651Z,2.13
2018-05-04T07:11:19.024Z,2.27
2018-05-04T07:14:25.448Z,2.00
2018-05-04T07:17:30.227Z,2.07
2018-05-04T07:20:33.494Z,2.00
2018-05-04T07:23:38.560Z,1.70
2018-05-04T07:26:43.066Z,2.13
2018-05-04T07:29:46.308Z,1.90
2018-05-04T07:32:49.591Z,2.23
2018-05-04T07:35:52.743Z,2.10
2018-05-04T07:38:56.078Z,1.80
2018-05-04T07:41:59.771Z,2.00
2018-05-04T07:45:04.289Z,1.50
2018-05-04T07:48:07.481Z,1.80
2018-05-04T07:51:14.648Z,1.80
2018-05-04T07:54:17.932Z,2.00
2018-05-04T07:57:22.425Z,2.67
2018-05-04T08:00:26.208Z,1.73
2018-05-04T08:03:29.545Z,2.50
2018-05-04T08:06:35.132Z,2.10
2018-05-04T08:09:40.290Z,1.90
2018-05-04T08:12:43.633Z,1.90
2018-05-04T08:15:47.730Z,2.00
2018-05-04T08:18:51.070Z,2.03
2018-05-04T08:21:55.211Z,1.80
2018-05-04T08:24:58.536Z,1.60
2018-05-04T08:28:02.450Z,1.97
2018-05-04T08:31:06.637Z,1.83
2018-05-04T08:34:10.106Z,1.80
2018-05-04T08:37:13.518Z,1.67
2018-05-04T08:40:16.933Z,2.77
2018-05-04T08:43:20.954Z,1.50
2018-05-04T08:46:25.625Z,1.87
2018-05-04T08:49:28.959Z,1.80
2018-05-04T08:52:32.344Z,1.77
2018-05-04T08:55:35.937Z,1.80
2018-05-04T08:58:39.320Z,2.10
2018-05-04T09:01:43.732Z,1.77
2018-05-04T09:04:47.216Z,1.83
2018-05-04T09:07:50.450Z,2.27
2018-05-04T09:10:53.658Z,2.20
2018-05-04T09:13:57.005Z,2.03
2018-05-04T09:17:01.604Z,1.93
2018-05-04T09:20:05.748Z,2.13
2018-05-04T09:23:10.237Z,2.10
2018-05-04T09:26:14.466Z,2.27
2018-05-04T09:29:18.533Z,2.20
2018-05-04T09:32:22.532Z,2.20
2018-05-04T09:35:27.524Z,2.10
2018-05-04T09:38:32.468Z,2.10
2018-05-04T09:41:37.924Z,1.90
2018-05-04T09:44:41.290Z,1.90
2018-05-04T09:47:45.314Z,1.93
2018-05-04T09:50:48.611Z,2.13
2018-05-04T09:53:53.973Z,2.00
2018-05-04T09:56:57.302Z,2.40
2018-05-04T10:00:01.389Z,2.03
2018-05-04T10:03:04.807Z,2.10
2018-05-04T10:06:09.088Z,2.03
2018-05-04T10:09:12.667Z,1.97
2018-05-04T10:12:16.687Z,2.03
2018-05-04T10:15:20.037Z,2.00
2018-05-04T10:18:23.271Z,2.30
2018-05-04T10:21:26.479Z,2.27
2018-05-04T10:24:29.688Z,2.50
2018-05-04T10:27:32.908Z,2.27
2018-05-04T10:30:36.539Z,2.40
2018-05-04T10:33:42.159Z,2.80
2018-05-04T10:36:46.835Z,2.13
2018-05-04T10:39:50.626Z,2.30
2018-05-04T10:42:54.851Z,2.20
2018-05-04T10:45:59.155Z,1.93
2018-05-04T10:49:02.460Z,2.23
2018-05-04T10:52:05.701Z,2.40
2018-05-04T10:55:09.917Z,3.20
2018-05-04T10:58:13.954Z,2.70
2018-05-04T11:01:18.157Z,2.77
2018-05-04T11:04:24.009Z,2.83
2018-05-04T11:07:27.202Z,2.60
2018-05-04T11:10:31.217Z,3.17
2018-05-04T11:13:34.653Z,2.57
2018-05-04T11:16:37.980Z,2.87
2018-05-04T11:19:41.289Z,2.93
2018-05-04T11:22:45.749Z,3.03
2018-05-04T11:25:49.847Z,3.00
2018-05-04T11:28:53.982Z,3.00
2018-05-04T11:31:58.547Z,3.33
2018-05-04T11:35:01.994Z,2.90
2018-05-04T11:38:05.310Z,3.00
2018-05-04T11:41:08.614Z,3.67
2018-05-04T11:44:13.070Z,3.17
2018-05-04T11:47:16.927Z,3.40
2018-05-04T11:50:20.292Z,3.63
2018-05-04T11:53:24.260Z,2.43
2018-05-04T11:56:27.512Z,3.17
2018-05-04T11:59:31.491Z,3.37
2018-05-04T12:02:35.446Z,3.70
2018-05-04T12:05:39.434Z,2.90
2018-05-04T12:08:43.014Z,4.00
2018-05-04T12:11:48.930Z,3.10
2018-05-04T12:14:53.054Z,3.70
2018-05-04T12:17:56.342Z,3.27
2018-05-04T12:20:59.709Z,3.67
2018-05-04T12:24:03.847Z,3.90
2018-05-04T12:27:08.949Z,3.63
2018-05-04T12:30:12.458Z,2.97
2018-05-04T12:33:16.066Z,3.63
2018-05-04T12:36:20.690Z,3.83
2018-05-04T12:39:24.051Z,4.20
2018-05-04T12:42:27.418Z,4.00
2018-05-04T12:45:31.928Z,3.20
2018-05-04T12:48:35.215Z,4.33
2018-05-04T12:51:38.517Z,3.60
2018-05-04T12:54:42.436Z,3.83
2018-05-04T12:57:46.563Z,3.83
2018-05-04T13:00:49.852Z,3.60
2018-05-04T13:03:53.195Z,4.03
2018-05-04T13:06:57.993Z,3.70
2018-05-04T13:10:01.264Z,4.17
2018-05-04T13:13:09.744Z,3.80
2018-05-04T13:16:13.170Z,3.40
2018-05-04T13:19:16.447Z,4.47
2018-05-04T13:22:21.069Z,3.87
2018-05-04T13:25:45.491Z,4.40
2018-05-04T13:28:49.725Z,3.57
2018-05-04T13:31:54.023Z,3.80
2018-05-04T13:38:06.611Z,4.90
2018-05-04T13:41:10.532Z,3.87
2018-05-04T13:44:13.797Z,4.90
2018-05-04T13:50:43.966Z,4.37
2018-05-04T13:53:47.372Z,4.10
2018-05-04T13:56:51.650Z,3.97
2018-05-04T13:59:55.976Z,4.93
2018-05-04T14:03:05.615Z,4.30
2018-05-04T14:06:08.929Z,3.63
2018-05-04T14:09:19.087Z,2.90
2018-05-04T14:12:33.414Z,3.37
2018-05-04T14:15:50.569Z,3.60
2018-05-04T14:18:57.102Z,4.30
2018-05-04T14:25:40.553Z,3.90
2018-05-04T14:28:50.031Z,3.80
2018-05-04T14:31:59.112Z,4.47
2018-05-04T14:41:52.502Z,4.23
2018-05-04T14:45:05.621Z,4.67
2018-05-04T14:48:09.639Z,4.17
2018-05-04T14:57:36.318Z,3.93
2018-05-04T15:00:45.605Z,3.93
2018-05-04T15:03:49.396Z,3.63
2018-05-04T15:07:03.379Z,3.67
2018-05-04T15:10:10.748Z,3.37
2018-05-04T15:13:16.327Z,3.30
2018-05-04T15:16:33.217Z,3.40
2018-05-04T15:19:42.281Z,3.23
2018-05-04T15:22:52.092Z,3.20
2018-05-04T15:25:57.143Z,2.97
2018-05-04T15:29:03.757Z,3.57
2018-05-04T15:32:17.570Z,2.70
2018-05-04T15:35:24.239Z,3.57
2018-05-04T15:38:41.027Z,3.57
2018-05-04T15:41:44.247Z,2.77
2018-05-04T15:44:47.718Z,3.60
2018-05-04T15:47:53.284Z,3.17
2018-05-04T15:57:52.981Z,3.13
2018-05-04T16:00:58.618Z,3.33
2018-05-04T16:04:03.561Z,3.63
2018-05-04T16:07:09.431Z,2.87
2018-05-04T16:10:49.293Z,3.13
2018-05-04T16:13:52.551Z,3.17
2018-05-04T16:17:05.355Z,3.30
2018-05-04T16:20:08.611Z,2.93
2018-05-04T16:23:14.509Z,2.53
2018-05-04T16:26:20.315Z,3.33
2018-05-04T16:29:33.112Z,3.40
2018-05-04T16:32:41.253Z,3.33
2018-05-04T16:35:45.620Z,3.10
2018-05-04T16:38:52.859Z,3.93
2018-05-04T16:41:59.298Z,2.93
2018-05-04T16:45:10.409Z,3.43
2018-05-04T16:48:23.607Z,2.83
2018-05-04T16:51:28.262Z,3.50
2018-05-04T16:54:32.550Z,3.07
2018-05-04T16:57:38.547Z,3.10
2018-05-04T17:00:45.580Z,2.93
2018-05-04T17:04:06.209Z,3.13
2018-05-04T17:07:12.956Z,2.90
2018-05-04T17:13:44.048Z,2.63
2018-05-04T17:17:09.092Z,3.10
2018-05-04T17:20:12.861Z,2.50
2018-05-04T17:23:18.646Z,2.60
2018-05-04T17:26:27.593Z,2.63
2018-05-04T17:32:53.634Z,2.57
2018-05-04T17:35:58.058Z,2.90
2018-05-04T17:39:05.086Z,3.20
2018-05-04T17:42:08.380Z,3.27
2018-05-04T17:45:17.620Z,2.80
2018-05-04T17:48:21.058Z,2.93
2018-05-04T17:51:36.595Z,2.70
2018-05-04T17:54:55.112Z,2.70
2018-05-04T17:58:04.468Z,2.30
2018-05-04T18:01:07.869Z,2.90
2018-05-04T18:04:22.306Z,3.10
2018-05-04T18:07:40.479Z,2.40
2018-05-04T18:10:47.628Z,2.77
2018-05-04T18:13:51.194Z,2.50
2018-05-04T18:16:57.258Z,2.80
2018-05-04T18:20:00.723Z,3.03
2018-05-04T18:23:07.568Z,2.43
2018-05-04T18:26:23.263Z,2.83
2018-05-04T18:29:39.033Z,2.73
2018-05-04T18:32:44.420Z,2.77
2018-05-04T18:35:49.901Z,2.60
2018-05-04T18:38:54.625Z,2.20
2018-05-04T18:42:00.120Z,2.50
2018-05-04T18:45:11.729Z,3.10
2018-05-04T18:48:15.559Z,3.00
2018-05-04T18:51:19.040Z,2.90
2018-05-04T18:54:22.421Z,2.40
2018-05-04T18:57:27.355Z,2.87
2018-05-04T19:00:39.576Z,2.80
2018-05-04T19:04:01.807Z,2.60
2018-05-04T19:07:10.840Z,3.03
2018-05-04T19:10:15.113Z,2.50
2018-05-04T19:13:25.100Z,2.63
2018-05-04T19:16:30.165Z,2.50
2018-05-04T19:19:34.983Z,2.23
2018-05-04T19:22:39.297Z,2.80
2018-05-04T19:28:55.468Z,2.37
2018-05-04T19:32:08.400Z,2.83
2018-05-04T19:38:25.030Z,2.57
2018-05-04T19:41:30.381Z,2.20
2018-05-04T19:44:44.536Z,2.67
2018-05-04T19:47:51.529Z,2.10
2018-05-04T19:50:55.604Z,2.80
2018-05-04T19:54:09.083Z,2.20
2018-05-04T19:57:13.050Z,2.60
2018-05-04T20:00:26.144Z,2.93
2018-05-04T20:17:35.292Z,2.53
2018-05-04T20:20:38.767Z,2.33
2018-05-04T20:23:45.333Z,2.07
2018-05-04T20:26:51.789Z,2.57
2018-05-04T20:29:59.933Z,3.00
2018-05-04T20:33:03.890Z,2.53
2018-05-04T20:36:07.511Z,2.37
2018-05-04T20:39:11.577Z,2.93
2018-05-04T20:45:38.527Z,2.43
2018-05-04T20:48:41.999Z,2.33
2018-05-04T20:55:14.872Z,2.67
2018-05-04T20:58:35.286Z,2.87
2018-05-04T21:01:38.706Z,2.63
2018-05-04T21:04:42.081Z,2.60
2018-05-04T21:07:50.244Z,3.10
2018-05-04T21:10:53.680Z,3.00
2018-05-04T21:14:07.703Z,2.40
2018-05-04T21:17:11.106Z,3.10
2018-05-04T21:20:14.341Z,2.63
2018-05-04T21:23:18.145Z,2.33
2018-05-04T21:33:08.623Z,2.50
2018-05-04T21:36:11.877Z,2.63
2018-05-04T21:39:33.289Z,2.80
2018-05-04T21:42:37.572Z,2.70
2018-05-04T21:45:40.859Z,2.80
2018-05-04T21:48:45.031Z,2.70
2018-05-04T21:55:07.240Z,2.27
2018-05-04T21:58:10.679Z,2.10
2018-05-04T22:01:14.921Z,2.57
2018-05-04T22:04:26.841Z,2.90
2018-05-04T22:07:36.213Z,2.93
2018-05-04T22:10:39.643Z,2.53
2018-05-04T22:13:44.275Z,3.07
2018-05-04T22:16:50.689Z,2.63
2018-05-04T22:20:11.743Z,2.53
2018-05-04T22:23:15.102Z,2.70
2018-05-04T22:26:25.419Z,2.40
2018-05-04T22:29:29.585Z,2.30
2018-05-04T22:32:33.818Z,2.13
2018-05-04T22:35:37.021Z,1.93
2018-05-04T22:38:40.230Z,2.20
2018-05-04T22:41:43.843Z,2.83
2018-05-04T22:44:50.416Z,2.53
2018-05-04T22:47:56.721Z,2.63
2018-05-04T22:51:00.010Z,3.90
2018-05-04T22:54:03.379Z,2.80
2018-05-04T23:03:59.529Z,2.30
2018-05-04T23:07:02.713Z,2.70
2018-05-04T23:10:05.979Z,2.83
2018-05-04T23:13:09.997Z,3.00
2018-05-04T23:16:17.191Z,2.23
2018-05-04T23:19:20.442Z,2.57
2018-05-04T23:22:28.722Z,2.50
2018-05-04T23:25:31.913Z,2.37
2018-05-04T23:28:36.180Z,2.07
2018-05-04T23:31:39.686Z,2.50
2018-05-04T23:34:44.173Z,2.00
2018-05-04T23:37:52.067Z,2.30
2018-05-04T23:40:56.126Z,1.77
2018-05-04T23:43:59.528Z,4.77
2018-05-04T23:47:03.526Z,3.20
2018-05-04T23:50:06.991Z,2.40
2018-05-04T23:53:10.282Z,2.23
2018-05-04T23:56:14.506Z,2.07
2018-05-04T23:59:23.003Z,1.97
